SBOSBO SPG / KSPG
Speedbird OnlineSpeedbird Online SPG / KSPG

Albert Whitted Airport
19:57 11.6°C

Location St. Petersburg, United States
Latitude: 27.7651
Longitude: -82.626999
Web Wikipedia
Altitude 2 Meter / 7 Feet
Distance 7,147 KM / 4,441 Miles
from London.
Time Zone UTC -5 hours (America/New_York)
Codes IATA: SPG
ICAO: KSPG
Currency £1 equals USD 1.24
Runways
RunwayLength (m)Surface
071121Asphalt
18873Asphalt
251121Asphalt
36873Asphalt
Radio
TypeDescriptionFrequency
A/DTAMPA APP/DEP119.65
ASOSASOS118.875
CTAFCTAF127.4
GNDGND121.8
TWRTWR127.4
UNICUNICOM122.95
Live ATC
METAR KSPG 262353Z 34007KT 10SM CLR 13/08 A3019 RMK AO2 SLP224 T01280078 10150 20128 53016
TAF
Weather As Of 26 Jan 2023 19:57
Description Scattered clouds
Wind 27 km/h from North (349°)
Cloud Cover 33%
Precipitation Rain: none, Snow: none
Sunrise 07:19
Sunset 18:05



Support Speedbird Online

© 2017-2023 Speedbird Online